Time;durP1;ratioP1;P1;durP2;ratioP2;P2;SDS_P1;SDS_P2;PMS_P1;PMS_P2;Temp;Humidity;BMP_temperature;BMP_pressure;BME280_temperature;BME280_humidity;BME280_pressure;Samples;Min_cycle;Max_cycle;Signal;HPM_P1;HPM_P2
2022/04/05 00:00:24;;;;;;;6.07;2.80;;;;;;;8.32;100.00;100487.94;5096480;28;20020;-67
2022/04/05 00:02:50;;;;;;;8.43;2.90;;;;;;;8.29;100.00;100494.25;5096429;28;20020;-67
2022/04/05 00:05:15;;;;;;;5.10;2.25;;;;;;;8.16;100.00;100496.63;5078079;28;20225;-67
2022/04/05 00:07:41;;;;;;;8.27;2.95;;;;;;;8.14;100.00;100496.84;5096369;28;20024;-67
2022/04/05 00:10:06;;;;;;;7.88;2.22;;;;;;;8.05;100.00;100479.84;5078126;28;20550;-67
2022/04/05 00:12:32;;;;;;;5.57;1.90;;;;;;;8.18;100.00;100492.13;5096159;28;20379;-67
2022/04/05 00:14:57;;;;;;;6.03;1.67;;;;;;;8.11;100.00;100498.94;5077964;28;20052;-67
2022/04/05 00:17:22;;;;;;;7.95;1.40;;;;;;;7.93;100.00;100501.06;5077950;28;20115;-67
2022/04/05 00:19:47;;;;;;;7.22;1.30;;;;;;;7.94;100.00;100507.81;5096151;28;20043;-68
2022/04/05 00:22:13;;;;;;;4.10;1.50;;;;;;;8.00;100.00;100507.09;5077834;28;20032;-67
2022/04/05 00:24:38;;;;;;;4.82;1.17;;;;;;;7.91;100.00;100498.66;5077684;28;20341;-67
2022/04/05 00:27:03;;;;;;;5.85;1.30;;;;;;;7.90;100.00;100512.50;5095985;28;20024;-67
2022/04/05 00:29:29;;;;;;;2.30;1.00;;;;;;;7.84;100.00;100515.78;5095862;28;20369;-67
2022/04/05 00:31:54;;;;;;;4.60;0.82;;;;;;;7.85;100.00;100518.19;5095922;28;20074;-68
2022/04/05 00:34:24;;;;;;;3.35;1.00;;;;;;;7.86;100.00;100511.28;5095801;28;20116;-67
2022/04/05 00:36:50;;;;;;;3.60;0.95;;;;;;;7.85;100.00;100513.06;5095611;28;20031;-69
2022/04/05 00:39:15;;;;;;;2.88;1.10;;;;;;;7.86;100.00;100501.00;5095704;28;20028;-68
2022/04/05 00:41:41;;;;;;;3.45;0.98;;;;;;;7.86;100.00;100503.56;5095715;28;20035;-67
2022/04/05 00:44:06;;;;;;;2.20;1.02;;;;;;;7.89;100.00;100504.00;5077421;28;20028;-67
2022/04/05 00:46:31;;;;;;;1.85;0.88;;;;;;;7.83;100.00;100503.91;5095618;28;20030;-66
2022/04/05 00:49:00;;;;;;;4.30;1.75;;;;;;;7.88;100.00;100499.00;5095701;28;20032;-67
2022/04/05 00:51:26;;;;;;;2.35;1.08;;;;;;;7.94;100.00;100498.34;5095242;28;20495;-67
2022/04/05 00:53:58;;;;;;;3.63;1.15;;;;;;;7.94;100.00;100494.94;5077366;28;20024;-67
2022/04/05 00:56:26;;;;;;;2.33;1.13;;;;;;;7.94;100.00;100495.75;5077270;28;20030;-68
2022/04/05 00:58:53;;;;;;;3.20;1.02;;;;;;;7.99;100.00;100497.78;5095303;28;20016;-67
2022/04/05 01:01:21;;;;;;;2.80;1.10;;;;;;;7.95;100.00;100496.56;5095358;28;20080;-68
2022/04/05 01:03:49;;;;;;;2.88;1.20;;;;;;;7.94;100.00;100503.47;5077084;28;20041;-67
2022/04/05 01:06:22;;;;;;;3.08;1.10;;;;;;;7.89;100.00;100495.50;5095232;28;20039;-67
2022/04/05 01:08:48;;;;;;;2.70;1.10;;;;;;;7.95;100.00;100499.94;5095146;28;20024;-68
2022/04/05 01:11:13;;;;;;;4.53;1.45;;;;;;;7.94;100.00;100502.66;5095324;28;20026;-67
2022/04/05 01:13:39;;;;;;;2.45;1.38;;;;;;;7.93;100.00;100501.88;5077031;28;20024;-67
2022/04/05 01:16:06;;;;;;;4.25;1.30;;;;;;;8.02;100.00;100502.59;5077086;28;20368;-66
2022/04/05 01:18:33;;;;;;;4.53;1.48;;;;;;;7.99;100.00;100508.88;5077325;28;20028;-68
2022/04/05 01:20:59;;;;;;;5.05;1.30;;;;;;;7.94;100.00;100502.66;5094856;28;20020;-67
2022/04/05 01:23:24;;;;;;;2.70;1.27;;;;;;;7.97;100.00;100502.31;5095141;28;20094;-68
2022/04/05 01:25:51;;;;;;;2.63;1.40;;;;;;;7.95;100.00;100510.22;5076598;28;20115;-67
2022/04/05 01:28:16;;;;;;;4.90;1.70;;;;;;;7.88;100.00;100505.00;5094792;28;20057;-67
2022/04/05 01:30:42;;;;;;;6.32;2.00;;;;;;;7.89;100.00;100508.34;5094812;28;20081;-67
2022/04/05 01:33:07;;;;;;;4.72;1.67;;;;;;;7.91;100.00;100507.19;5076541;28;20035;-67
2022/04/05 01:35:34;;;;;;;4.28;2.35;;;;;;;7.89;100.00;100505.78;5094705;28;20432;-68
2022/04/05 01:38:02;;;;;;;6.88;1.80;;;;;;;7.89;100.00;100498.84;5076406;28;20024;-69
2022/04/05 01:40:27;;;;;;;6.28;1.98;;;;;;;7.89;100.00;100496.28;5094563;28;20024;-68
2022/04/05 01:42:53;;;;;;;2.78;1.90;;;;;;;7.89;100.00;100501.44;5076792;28;20020;-67
2022/04/05 01:45:19;;;;;;;5.65;2.20;;;;;;;7.90;100.00;100495.28;5094343;28;20052;-68
2022/04/05 01:47:45;;;;;;;4.40;2.00;;;;;;;7.97;100.00;100500.56;5075623;28;20433;-66
2022/04/05 01:50:10;;;;;;;6.95;2.42;;;;;;;7.86;100.00;100493.25;5094313;28;20031;-67
2022/04/05 01:52:35;;;;;;;6.80;2.50;;;;;;;7.75;100.00;100491.91;5094410;28;20059;-68
2022/04/05 01:55:00;;;;;;;4.25;2.50;;;;;;;7.83;100.00;100489.28;5094260;28;20024;-67
2022/04/05 01:57:26;;;;;;;5.35;2.60;;;;;;;7.81;100.00;100486.06;5076082;28;20575;-67
2022/04/05 01:59:51;;;;;;;7.68;3.10;;;;;;;7.78;100.00;100488.19;5076108;28;20165;-67
2022/04/05 02:02:16;;;;;;;5.88;2.88;;;;;;;7.66;100.00;100465.47;5094203;28;20482;-67
2022/04/05 02:04:42;;;;;;;8.43;3.10;;;;;;;7.80;100.00;100479.34;5094064;28;20024;-68
2022/04/05 02:07:18;;;;;;;7.50;3.28;;;;;;;7.78;100.00;100473.56;5075797;28;20035;-68
2022/04/05 02:09:44;;;;;;;6.45;3.35;;;;;;;7.79;100.00;100479.50;5094232;28;20028;-68
2022/04/05 02:12:10;;;;;;;7.05;3.40;;;;;;;7.76;100.00;100474.69;5094006;28;20024;-68
2022/04/05 02:14:37;;;;;;;7.00;3.60;;;;;;;7.77;100.00;100484.00;5075793;28;20237;-68
2022/04/05 02:17:04;;;;;;;7.55;4.10;;;;;;;7.73;100.00;100478.41;5093765;28;20020;-68
2022/04/05 02:19:29;;;;;;;5.20;3.70;;;;;;;7.74;100.00;100479.22;5093839;28;20039;-68
2022/04/05 02:21:55;;;;;;;7.55;4.03;;;;;;;7.74;100.00;100486.94;5093851;28;20111;-67
2022/04/05 02:24:21;;;;;;;6.63;4.05;;;;;;;7.72;100.00;100486.31;5093809;28;20122;-68
2022/04/05 02:26:48;;;;;;;6.32;4.13;;;;;;;7.68;100.00;100489.25;5093881;28;20074;-67
2022/04/05 02:29:13;;;;;;;6.20;4.03;;;;;;;7.79;100.00;100489.78;5076396;28;20027;-66
2022/04/05 02:31:38;;;;;;;6.50;4.18;;;;;;;7.75;100.00;100498.84;5093807;28;20107;-67
2022/04/05 02:34:03;;;;;;;7.45;3.90;;;;;;;7.77;100.00;100505.41;5075484;28;20077;-67
2022/04/05 02:36:29;;;;;;;7.65;3.72;;;;;;;7.81;100.00;100495.56;5094301;28;20020;-69
2022/04/05 02:38:54;;;;;;;6.57;3.67;;;;;;;7.75;100.00;100501.41;5093657;28;20055;-67
2022/04/05 02:41:20;;;;;;;8.70;3.90;;;;;;;7.78;100.00;100493.34;5075353;28;20024;-67
2022/04/05 02:43:45;;;;;;;6.32;3.83;;;;;;;7.70;100.00;100494.22;5075155;28;20036;-68
2022/04/05 02:46:11;;;;;;;8.25;3.78;;;;;;;7.69;100.00;100498.56;5094011;28;20043;-67
2022/04/05 02:48:42;;;;;;;7.63;4.10;;;;;;;7.73;100.00;100498.22;5075048;28;20032;-68
2022/04/05 02:51:08;;;;;;;10.15;4.68;;;;;;;7.67;100.00;100497.91;5075024;28;20387;-67
2022/04/05 02:53:33;;;;;;;6.90;4.55;;;;;;;7.65;100.00;100499.06;5075321;28;20016;-68
2022/04/05 02:55:58;;;;;;;9.80;5.72;;;;;;;7.76;100.00;100495.28;5093735;28;20530;-68
2022/04/05 02:58:24;;;;;;;11.10;5.65;;;;;;;7.75;100.00;100496.25;5093268;28;20027;-67
2022/04/05 03:00:49;;;;;;;10.98;6.72;;;;;;;7.74;100.00;100495.47;5093262;28;20072;-68
2022/04/05 03:03:14;;;;;;;11.95;7.30;;;;;;;7.75;100.00;100485.97;5093603;28;20343;-67
2022/04/05 03:05:39;;;;;;;12.93;8.15;;;;;;;7.75;100.00;100484.19;5093390;28;20025;-68
2022/04/05 03:08:05;;;;;;;13.27;8.38;;;;;;;7.68;100.00;100473.81;5075048;28;20031;-67
2022/04/05 03:10:32;;;;;;;14.27;8.88;;;;;;;7.75;100.00;100486.78;5075049;28;20161;-68
2022/04/05 03:12:58;;;;;;;15.60;8.63;;;;;;;7.76;100.00;100477.28;5093075;28;20024;-67
2022/04/05 03:15:24;;;;;;;18.10;8.25;;;;;;;7.68;100.00;100478.13;5093152;28;20020;-67
2022/04/05 03:17:50;;;;;;;16.10;8.40;;;;;;;7.73;100.00;100486.13;5093060;28;20047;-68
2022/04/05 03:20:15;;;;;;;15.30;8.43;;;;;;;7.75;100.00;100496.25;5074979;28;20428;-67
2022/04/05 03:22:42;;;;;;;16.02;8.45;;;;;;;7.74;100.00;100500.63;5092958;28;20027;-67
2022/04/05 03:25:07;;;;;;;15.82;9.23;;;;;;;7.80;100.00;100496.53;5093083;28;20031;-68
2022/04/05 03:27:33;;;;;;;14.48;8.30;;;;;;;7.68;100.00;100493.56;5074811;28;20031;-68
2022/04/05 03:29:58;;;;;;;13.13;8.48;;;;;;;7.68;100.00;100494.41;5074798;28;20031;-68
2022/04/05 03:32:23;;;;;;;16.92;9.05;;;;;;;7.68;100.00;100494.41;5074783;28;20383;-67
2022/04/05 03:34:50;;;;;;;13.60;7.40;;;;;;;7.63;100.00;100501.81;5093145;28;20027;-68
2022/04/05 03:37:16;;;;;;;13.60;7.45;;;;;;;7.68;100.00;100491.81;5092863;28;20110;-67
2022/04/05 03:39:41;;;;;;;14.18;8.27;;;;;;;7.68;100.00;100489.25;5092928;28;20112;-68
2022/04/05 03:42:06;;;;;;;14.15;7.68;;;;;;;7.72;100.00;100487.13;5092837;28;20387;-68
2022/04/05 03:44:32;;;;;;;12.32;6.30;;;;;;;7.67;100.00;100481.69;5074609;28;20028;-67
2022/04/05 03:46:57;;;;;;;11.60;7.00;;;;;;;7.66;100.00;100477.53;5074675;28;20498;-67
2022/04/05 03:49:23;;;;;;;10.95;6.07;;;;;;;7.71;100.00;100484.72;5074737;28;20027;-68
2022/04/05 03:51:48;;;;;;;9.70;6.13;;;;;;;7.75;100.00;100485.97;5092681;28;20052;-67
2022/04/05 03:54:13;;;;;;;11.65;6.70;;;;;;;7.73;100.00;100482.78;5093258;28;20112;-68
2022/04/05 03:56:38;;;;;;;8.57;6.10;;;;;;;7.73;100.00;100481.00;5093090;28;20043;-67
2022/04/05 03:59:04;;;;;;;13.35;6.60;;;;;;;7.73;100.00;100482.78;5093043;28;20040;-67
2022/04/05 04:01:29;;;;;;;12.32;5.60;;;;;;;7.66;100.00;100474.97;5074542;28;20390;-67
2022/04/05 04:03:55;;;;;;;9.95;5.65;;;;;;;7.68;100.00;100475.56;5074477;28;20028;-67
2022/04/05 04:06:20;;;;;;;10.88;5.43;;;;;;;7.62;100.00;100469.38;5075150;28;20020;-68
2022/04/05 04:08:45;;;;;;;8.85;4.85;;;;;;;7.62;100.00;100461.66;5093268;28;20058;-68
2022/04/05 04:11:11;;;;;;;8.82;4.82;;;;;;;7.67;100.00;100469.63;5076505;28;20067;-68
2022/04/05 04:13:36;;;;;;;9.45;4.68;;;;;;;7.76;100.00;100466.97;5078038;28;20028;-69
2022/04/05 04:16:01;;;;;;;8.48;4.15;;;;;;;7.66;100.00;100467.25;5078007;28;20444;-68
2022/04/05 04:18:27;;;;;;;12.30;3.72;;;;;;;7.66;100.00;100467.25;5077964;28;20020;-68
2022/04/05 04:20:52;;;;;;;7.72;3.80;;;;;;;7.69;100.00;100461.75;5077989;28;20024;-68
2022/04/05 04:23:18;;;;;;;7.43;3.72;;;;;;;7.68;100.00;100462.72;5077792;28;20031;-70
2022/04/05 04:25:43;;;;;;;8.15;3.80;;;;;;;7.59;100.00;100445.75;5095998;28;20024;-69
2022/04/05 04:28:10;;;;;;;5.05;3.35;;;;;;;7.45;100.00;100432.72;5098108;28;20051;-70
2022/04/05 04:30:37;;;;;;;6.80;3.60;;;;;;;7.59;100.00;100456.84;5080411;28;20024;-69
2022/04/05 04:33:03;;;;;;;6.47;3.60;;;;;;;7.69;100.00;100448.88;5080730;28;20044;-67
2022/04/05 04:35:30;;;;;;;7.32;3.85;;;;;;;7.76;100.00;100459.28;5079450;28;20129;-67
2022/04/05 04:37:55;;;;;;;8.07;3.67;;;;;;;7.80;100.00;100450.25;5095763;28;20024;-67
2022/04/05 04:40:21;;;;;;;6.82;3.55;;;;;;;7.80;100.00;100455.38;5095717;28;20387;-68
2022/04/05 04:42:47;;;;;;;9.10;3.80;;;;;;;7.82;100.00;100454.22;5077539;28;20091;-67
2022/04/05 04:45:13;;;;;;;8.07;3.85;;;;;;;7.76;100.00;100448.97;5095587;28;20074;-67
2022/04/05 04:47:39;;;;;;;5.72;3.72;;;;;;;7.77;100.00;100450.56;5077499;28;20071;-67
2022/04/05 04:50:06;;;;;;;6.18;4.13;;;;;;;7.86;100.00;100452.09;5095520;28;20494;-66
2022/04/05 04:52:31;;;;;;;11.85;4.35;;;;;;;7.84;100.00;100461.75;5077121;28;20510;-68
2022/04/05 04:54:56;;;;;;;7.22;5.13;;;;;;;7.85;100.00;100453.06;5077324;28;20063;-67
2022/04/05 04:57:23;;;;;;;12.65;4.97;;;;;;;7.87;100.00;100456.25;5095213;28;20375;-67
2022/04/05 04:59:49;;;;;;;8.88;4.90;;;;;;;7.77;100.00;100456.53;5095368;28;20467;-66
2022/04/05 05:02:15;;;;;;;10.82;4.93;;;;;;;7.78;100.00;100455.53;5095306;28;20030;-67
2022/04/05 05:04:40;;;;;;;10.27;5.50;;;;;;;7.83;100.00;100452.47;5076952;28;20433;-68
2022/04/05 05:07:05;;;;;;;8.68;5.50;;;;;;;7.86;100.00;100452.91;5095226;28;20035;-68
2022/04/05 05:09:30;;;;;;;7.88;5.70;;;;;;;7.93;100.00;100452.19;5077474;28;20019;-68
2022/04/05 05:11:56;;;;;;;9.48;6.00;;;;;;;7.90;100.00;100450.75;5095612;28;20038;-69
2022/04/05 05:14:21;;;;;;;10.27;6.40;;;;;;;7.86;100.00;100432.31;5077698;28;20020;-67
2022/04/05 05:16:46;;;;;;;12.82;6.78;;;;;;;8.01;100.00;100455.47;5077336;28;20024;-67
2022/04/05 05:19:12;;;;;;;10.82;7.20;;;;;;;8.03;100.00;100453.53;5077483;28;20341;-67
2022/04/05 05:21:37;;;;;;;11.80;7.50;;;;;;;8.12;100.00;100446.50;5094757;28;20024;-67
2022/04/05 05:24:02;;;;;;;15.73;8.20;;;;;;;8.19;100.00;100447.38;5075799;28;20085;-67
2022/04/05 05:26:28;;;;;;;14.85;8.10;;;;;;;8.26;100.00;100457.78;5076709;28;20119;-67
2022/04/05 05:28:53;;;;;;;14.10;8.93;;;;;;;8.22;100.00;100449.59;5076604;28;20115;-67
2022/04/05 05:31:18;;;;;;;15.30;9.32;;;;;;;8.27;100.00;100451.63;5075362;28;20024;-67
2022/04/05 05:33:43;;;;;;;18.25;9.70;;;;;;;8.34;100.00;100452.50;5074620;28;20012;-69
2022/04/05 05:36:09;;;;;;;17.38;9.88;;;;;;;8.43;100.00;100442.94;5074384;28;20556;-69
2022/04/05 05:38:34;;;;;;;19.50;10.07;;;;;;;8.50;100.00;100442.03;5077011;28;20024;-68
2022/04/05 05:40:59;;;;;;;20.65;10.55;;;;;;;8.53;100.00;100444.25;5094859;28;20055;-68
2022/04/05 05:43:25;;;;;;;23.05;10.20;;;;;;;8.59;100.00;100446.09;5093886;28;20027;-67
2022/04/05 05:45:50;;;;;;;18.63;10.30;;;;;;;8.65;100.00;100447.16;5076164;28;20411;-68
2022/04/05 05:48:15;;;;;;;20.70;10.43;;;;;;;8.65;100.00;100451.50;5075273;28;20032;-69
2022/04/05 05:50:41;;;;;;;19.30;9.18;;;;;;;8.62;100.00;100451.88;5092412;28;20107;-68
2022/04/05 05:53:07;;;;;;;21.25;10.40;;;;;;;8.65;100.00;100454.88;5075730;28;20048;-68
2022/04/05 05:55:33;;;;;;;18.52;9.07;;;;;;;8.69;100.00;100463.03;5092975;28;20027;-68
2022/04/05 05:57:58;;;;;;;19.88;9.15;;;;;;;8.72;100.00;100453.19;5075086;28;20066;-68
2022/04/05 06:00:24;;;;;;;17.42;9.02;;;;;;;8.79;100.00;100458.38;5075153;28;20040;-69
2022/04/05 06:02:54;;;;;;;14.75;8.05;;;;;;;8.77;100.00;100460.34;5092082;28;20024;-70
2022/04/05 06:05:19;;;;;;;25.02;7.95;;;;;;;8.75;100.00;100463.13;5093236;28;20040;-68
2022/04/05 06:07:45;;;;;;;20.70;7.45;;;;;;;8.73;100.00;100462.50;5093927;28;20020;-67
2022/04/05 06:10:12;;;;;;;18.63;7.13;;;;;;;8.80;100.00;100460.81;5093725;28;20073;-67
2022/04/05 06:12:40;;;;;;;15.40;7.40;;;;;;;8.85;100.00;100467.97;5075560;28;20107;-68
2022/04/05 06:15:08;;;;;;;19.38;6.43;;;;;;;8.88;100.00;100471.97;5093576;28;20028;-69
2022/04/05 06:17:38;;;;;;;16.40;6.45;;;;;;;8.90;100.00;100467.44;5093744;28;20514;-66
2022/04/05 06:20:05;;;;;;;14.05;6.47;;;;;;;8.99;100.00;100466.31;5091954;28;20016;-67
2022/04/05 06:22:30;;;;;;;16.00;6.40;;;;;;;9.06;100.00;100472.31;5072843;28;20536;-68
2022/04/05 06:24:56;;;;;;;15.50;5.93;;;;;;;9.03;100.00;100478.66;5073026;28;20035;-67
2022/04/05 06:27:21;;;;;;;12.25;6.05;;;;;;;9.09;100.00;100476.31;5073125;28;20059;-67
2022/04/05 06:29:46;;;;;;;17.33;5.93;;;;;;;9.08;100.00;100478.09;5093384;28;20482;-69
2022/04/05 06:32:11;;;;;;;14.45;5.80;;;;;;;9.09;100.00;100476.31;5091535;28;20101;-67
2022/04/05 06:34:37;;;;;;;18.83;6.15;;;;;;;9.11;100.00;100476.94;5092402;28;20027;-67
2022/04/05 06:37:02;;;;;;;18.48;6.15;;;;;;;9.07;100.00;100476.50;5073978;28;20020;-69
2022/04/05 06:39:28;;;;;;;14.18;5.65;;;;;;;9.18;100.00;100488.13;5074656;28;20027;-68
2022/04/05 06:41:53;;;;;;;15.80;5.80;;;;;;;9.24;100.00;100484.81;5092174;28;20027;-69
2022/04/05 06:44:19;;;;;;;15.73;5.53;;;;;;;9.16;100.00;100488.28;5093027;28;20027;-68
2022/04/05 06:46:45;;;;;;;14.88;5.65;;;;;;;9.26;100.00;100490.56;5092414;28;20035;-69
2022/04/05 06:49:10;;;;;;;12.48;5.35;;;;;;;9.30;100.00;100483.25;5075050;28;20024;-67
2022/04/05 06:51:36;;;;;;;16.27;5.70;;;;;;;9.26;100.00;100482.81;5074814;28;20409;-66
2022/04/05 06:54:01;;;;;;;19.92;5.72;;;;;;;9.17;100.00;100471.03;5075288;28;20513;-68
2022/04/05 06:56:26;;;;;;;17.73;5.30;;;;;;;9.29;100.00;100494.53;5075136;28;20135;-67
2022/04/05 06:58:52;;;;;;;11.48;5.28;;;;;;;9.32;100.00;100489.84;5093196;28;20016;-67
2022/04/05 07:01:17;;;;;;;16.40;5.38;;;;;;;9.38;100.00;100490.84;5093132;28;20436;-67
2022/04/05 07:03:43;;;;;;;19.08;5.03;;;;;;;9.30;100.00;100501.31;5075100;28;20115;-68
2022/04/05 07:06:08;;;;;;;16.15;5.57;;;;;;;9.36;100.00;100498.00;5074988;28;20055;-67
2022/04/05 07:08:33;;;;;;;15.23;5.60;;;;;;;9.37;100.00;100492.63;5075003;28;20506;-67
2022/04/05 07:10:58;;;;;;;11.70;4.93;;;;;;;9.42;100.00;100504.97;5074858;28;20024;-68
2022/04/05 07:13:24;;;;;;;13.52;5.18;;;;;;;9.45;100.00;100502.03;5074920;28;20119;-69
2022/04/05 07:15:49;;;;;;;13.82;5.20;;;;;;;9.27;100.00;100479.28;5092997;28;20020;-67
2022/04/05 07:18:14;;;;;;;12.15;4.85;;;;;;;9.53;100.00;100496.75;5058174;28;20024;-67
2022/04/05 07:20:40;;;;;;;15.45;5.38;;;;;;;9.52;100.00;100489.97;5093228;28;20039;-66
2022/04/05 07:23:05;;;;;;;14.55;5.05;;;;;;;9.67;100.00;100492.50;5093892;28;20065;-67
2022/04/05 07:25:32;;;;;;;15.50;5.28;;;;;;;9.76;100.00;100499.09;5093091;28;20448;-67
2022/04/05 07:27:57;;;;;;;15.15;5.22;;;;;;;9.69;100.00;100496.44;5093191;28;20375;-68
2022/04/05 07:30:24;;;;;;;11.18;4.45;;;;;;;9.66;100.00;100496.03;5092734;28;20035;-69
2022/04/05 07:32:49;;;;;;;15.13;5.10;;;;;;;9.73;100.00;100494.31;5074962;28;20471;-68
2022/04/05 07:35:16;;;;;;;11.88;4.82;;;;;;;9.71;100.00;100497.06;5075006;28;20020;-68
2022/04/05 07:37:41;;;;;;;11.32;5.30;;;;;;;9.70;100.00;100499.84;5074741;28;20035;-68
2022/04/05 07:40:10;;;;;;;12.30;4.93;;;;;;;9.72;100.00;100503.03;5074942;28;20024;-68
2022/04/05 07:42:37;;;;;;;13.95;4.53;;;;;;;9.65;100.00;100491.88;5074922;28;20085;-68
2022/04/05 07:45:03;;;;;;;14.23;4.63;;;;;;;9.75;100.00;100499.28;5074677;28;20024;-67
2022/04/05 07:47:28;;;;;;;12.93;4.30;;;;;;;9.82;100.00;100503.50;5096865;28;20032;-68
2022/04/05 07:49:53;;;;;;;13.32;4.57;;;;;;;9.91;99.70;100489.47;5096878;28;20531;-68
2022/04/05 07:52:19;;;;;;;14.60;4.45;;;;;;;9.99;99.47;100501.44;5096706;28;20048;-69
2022/04/05 07:54:44;;;;;;;11.95;4.47;;;;;;;10.04;99.50;100504.25;5096661;28;20016;-68
2022/04/05 07:57:13;;;;;;;18.30;4.93;;;;;;;10.01;99.51;100506.38;5078272;28;20031;-68
2022/04/05 07:59:39;;;;;;;12.68;4.38;;;;;;;9.93;100.00;100502.19;5096600;28;20020;-67
2022/04/05 08:02:05;;;;;;;11.40;4.55;;;;;;;9.99;100.00;100505.81;5096515;28;20445;-67
2022/04/05 08:04:30;;;;;;;10.65;3.88;;;;;;;9.94;100.00;100504.56;5078093;28;20059;-67
2022/04/05 08:06:56;;;;;;;16.98;4.22;;;;;;;9.89;100.00;100513.84;5078630;28;20063;-73
2022/04/05 08:09:21;;;;;;;10.38;3.75;;;;;;;10.01;99.68;100503.81;5097246;28;20029;-73
2022/04/05 08:11:47;;;;;;;12.80;4.18;;;;;;;10.02;99.23;100508.00;5077572;28;20012;-73
2022/04/05 08:14:12;;;;;;;11.07;4.20;;;;;;;10.08;99.20;100507.25;5095013;28;20107;-73
2022/04/05 08:16:38;;;;;;;10.50;4.10;;;;;;;10.15;98.76;100500.31;5097060;28;20099;-72
2022/04/05 08:19:04;;;;;;;11.45;4.43;;;;;;;10.27;98.86;100498.00;5097925;28;20528;-72
2022/04/05 08:21:30;;;;;;;12.98;4.13;;;;;;;10.07;98.35;100477.22;5096491;28;20043;-73
2022/04/05 08:23:55;;;;;;;13.63;4.20;;;;;;;10.29;98.25;100507.16;5096086;28;20107;-74
2022/04/05 08:26:21;;;;;;;9.02;3.55;;;;;;;10.42;97.76;100501.28;5079875;28;20031;-72
2022/04/05 08:28:46;;;;;;;9.75;3.63;;;;;;;10.59;97.29;100510.28;5096735;28;20028;-72
2022/04/05 08:31:11;;;;;;;11.70;3.67;;;;;;;10.48;95.60;100513.44;5078242;28;20031;-72
2022/04/05 08:33:36;;;;;;;8.43;3.70;;;;;;;10.52;96.50;100508.66;5079870;28;20161;-73
2022/04/05 08:36:02;;;;;;;10.27;3.97;;;;;;;10.37;98.28;100513.97;5096360;28;20024;-73
2022/04/05 08:38:28;;;;;;;14.02;3.72;;;;;;;10.28;98.89;100515.13;5096081;28;20051;-73
2022/04/05 08:40:54;;;;;;;10.05;4.00;;;;;;;10.25;99.64;100516.28;5078130;28;20024;-72
2022/04/05 08:43:20;;;;;;;13.35;4.03;;;;;;;10.20;100.00;100521.19;5078228;28;20028;-73
2022/04/05 08:45:59;;;;;;;13.02;3.92;;;;;;;10.13;100.00;100526.34;5077984;28;20495;-72
2022/04/05 08:48:26;;;;;;;10.95;3.80;;;;;;;9.95;100.00;100528.59;5084332;28;20046;-72
2022/04/05 08:50:52;;;;;;;7.38;3.60;;;;;;;10.17;100.00;100530.13;5078624;28;20028;-72
2022/04/05 08:53:19;;;;;;;11.80;4.20;;;;;;;10.25;100.00;100530.97;5095959;28;20387;-72
2022/04/05 08:55:44;;;;;;;10.75;3.95;;;;;;;10.34;100.00;100530.66;5096787;28;20432;-72
2022/04/05 08:58:10;;;;;;;13.82;5.07;;;;;;;10.34;100.00;100530.66;5077957;28;20020;-72
2022/04/05 09:00:35;;;;;;;7.32;4.00;;;;;;;10.32;100.00;100532.63;5096919;28;20486;-73
2022/04/05 09:03:03;;;;;;;11.52;4.22;;;;;;;10.60;100.00;100521.41;5078451;28;20020;-73
2022/04/05 09:05:35;;;;;;;10.77;4.50;;;;;;;10.55;100.00;100531.53;5095619;28;20475;-73
2022/04/05 09:08:17;;;;;;;10.30;4.10;;;;;;;10.50;99.77;100526.13;5077732;28;20055;-72
2022/04/05 09:10:45;;;;;;;13.57;4.60;;;;;;;10.53;99.85;100528.34;5060210;28;20031;-72
2022/04/05 09:13:11;;;;;;;15.02;4.45;;;;;;;10.68;98.83;100531.59;5078390;28;20497;-73
2022/04/05 09:15:37;;;;;;;10.82;3.92;;;;;;;10.57;98.09;100538.09;5096369;28;20364;-73
2022/04/05 09:18:03;;;;;;;11.55;4.25;;;;;;;10.44;98.69;100527.69;5097200;28;20050;-73
2022/04/05 09:20:29;;;;;;;13.73;4.55;;;;;;;10.50;98.80;100528.72;5077578;28;20390;-73
2022/04/05 09:22:55;;;;;;;11.85;4.00;;;;;;;10.42;99.07;100539.25;5077787;28;20020;-73
2022/04/05 09:25:23;;;;;;;10.73;4.18;;;;;;;10.52;99.26;100539.66;5077181;28;20024;-73
2022/04/05 09:27:49;;;;;;;10.48;4.72;;;;;;;10.51;99.59;100543.25;5077587;28;20024;-74
2022/04/05 09:30:29;;;;;;;10.02;4.45;;;;;;;10.58;99.04;100541.47;5077228;28;20016;-71
2022/04/05 09:32:58;;;;;;;8.38;4.22;;;;;;;10.49;99.15;100545.22;5095226;28;20039;-72
2022/04/05 09:35:29;;;;;;;14.30;4.30;;;;;;;10.31;98.91;100550.91;5075860;28;20027;-72
2022/04/05 09:38:16;;;;;;;10.68;4.72;;;;;;;10.32;99.83;100542.16;5076038;28;20066;-74
2022/04/05 09:40:43;;;;;;;9.85;4.30;;;;;;;10.45;99.53;100546.59;5075976;28;20062;-72
2022/04/05 09:43:14;;;;;;;11.65;4.85;;;;;;;10.68;99.73;100547.09;5076664;28;20035;-72
2022/04/05 09:45:48;;;;;;;9.15;4.63;;;;;;;10.54;99.25;100553.19;5076774;28;20027;-72
2022/04/05 09:48:16;;;;;;;10.30;4.32;;;;;;;10.54;100.00;100553.19;5075928;28;20429;-73
2022/04/05 09:51:10;;;;;;;11.05;4.85;;;;;;;10.50;99.23;100554.56;5095316;28;20019;-73
2022/04/05 09:53:38;;;;;;;15.85;5.13;;;;;;;10.50;99.49;100555.38;5096686;28;20082;-72
2022/04/05 09:56:16;;;;;;;14.27;4.68;;;;;;;10.78;99.53;100547.53;5095113;28;20031;-72
2022/04/05 09:58:54;;;;;;;10.10;4.70;;;;;;;10.91;99.29;100557.13;5094841;28;20024;-73
2022/04/05 10:01:23;;;;;;;15.15;5.15;;;;;;;10.90;98.27;100544.38;5077057;28;20035;-72
2022/04/05 10:04:18;;;;;;;11.13;4.80;;;;;;;10.84;97.84;100551.13;5095054;28;20051;-73
2022/04/05 10:06:47;;;;;;;8.18;4.28;;;;;;;10.82;98.43;100546.16;5073226;28;20138;-73
2022/04/05 10:09:14;;;;;;;9.85;4.47;;;;;;;10.91;97.58;100551.16;5094647;28;20382;-74
2022/04/05 10:11:42;;;;;;;12.90;5.00;;;;;;;11.00;96.88;100550.00;5095590;28;20391;-72
2022/04/05 10:14:10;;;;;;;11.27;5.13;;;;;;;11.07;96.94;100553.38;5095277;28;20024;-72
2022/04/05 10:16:36;;;;;;;12.45;5.45;;;;;;;11.03;96.53;100559.94;5094438;28;20020;-72
2022/04/05 10:19:04;;;;;;;13.55;4.68;;;;;;;10.71;97.09;100554.47;5094430;28;20379;-73
2022/04/05 10:21:31;;;;;;;12.50;4.28;;;;;;;10.62;97.29;100550.47;5077512;28;20304;-73
2022/04/05 10:23:57;;;;;;;10.75;4.30;;;;;;;10.66;97.73;100564.56;5093576;28;20552;-73
2022/04/05 10:26:30;;;;;;;13.50;4.20;;;;;;;10.64;98.38;100566.53;5075478;28;20016;-73
2022/04/05 10:28:58;;;;;;;9.48;4.30;;;;;;;10.69;98.05;100563.41;5093919;28;20440;-73
2022/04/05 10:31:41;;;;;;;8.30;4.13;;;;;;;10.58;98.09;100562.16;5093341;28;20024;-73
2022/04/05 10:34:14;;;;;;;7.95;3.80;;;;;;;10.60;97.91;100563.56;5074097;28;20554;-72
2022/04/05 10:36:40;;;;;;;12.27;4.70;;;;;;;10.78;97.55;100563.03;5074942;28;20031;-72
2022/04/05 10:39:17;;;;;;;15.75;4.32;;;;;;;11.02;96.55;100558.34;5091617;28;20093;-72
2022/04/05 10:42:03;;;;;;;10.02;4.03;;;;;;;11.06;95.98;100564.72;5074369;28;20028;-72
2022/04/05 10:44:28;;;;;;;14.23;4.85;;;;;;;11.10;95.64;100563.31;5092087;28;20024;-72
2022/04/05 10:47:00;;;;;;;8.98;3.58;;;;;;;11.13;94.06;100560.34;5090910;28;20410;-73
2022/04/05 10:49:36;;;;;;;13.80;3.63;;;;;;;11.17;94.28;100560.78;5072521;28;20390;-73
2022/04/05 10:52:07;;;;;;;10.73;4.30;;;;;;;11.14;95.21;100568.94;5092914;28;20075;-71
2022/04/05 10:55:08;;;;;;;9.88;4.25;;;;;;;11.01;95.12;100562.72;5092027;28;20031;-72
2022/04/05 10:57:35;;;;;;;9.45;4.15;;;;;;;11.39;95.58;100559.59;5073890;28;20399;-72
2022/04/05 11:00:02;;;;;;;11.30;4.20;;;;;;;11.55;92.82;100553.25;5092800;28;20020;-72
2022/04/05 11:02:44;;;;;;;11.18;4.10;;;;;;;11.91;92.03;100565.84;5092763;28;20035;-73
2022/04/05 11:05:12;;;;;;;10.23;4.18;;;;;;;11.71;92.99;100563.22;5074764;28;20352;-73
2022/04/05 11:07:52;;;;;;;12.00;4.18;;;;;;;11.74;93.34;100551.69;5093305;28;20080;-72
2022/04/05 11:10:44;;;;;;;9.38;4.03;;;;;;;11.77;92.87;100547.88;5092806;28;20031;-73
2022/04/05 11:13:30;;;;;;;10.27;4.07;;;;;;;11.74;91.83;100552.47;5074755;28;20115;-73
2022/04/05 11:15:57;;;;;;;13.63;4.10;;;;;;;11.54;92.02;100551.66;5058310;28;20483;-72
2022/04/05 11:18:33;;;;;;;11.73;4.20;;;;;;;11.53;92.15;100561.19;5092862;28;20035;-73